Terminal Aerodrome Forecast
Issued by NWS

Home | Current Version | Previous Version | Text Only | Print | Product List | Glossary Off
Versions: 1 2 3 4 5 6 7 8 9 10 11 12 13 14 15 16 17 18 19 20 21 22 23 24 25

000
FTUS43 KGRB 200700 AAB
TAFATW
TAF AMD
KATW 200746Z 2008/2106 23012G18KT P6SM SCT020 BKN035 WS015/25040KT
      TEMPO 2008/2010 3SM TSRA BR BKN020CB
     FM201400 24011G18KT P6SM SCT015 BKN100
     FM201900 28011G18KT P6SM SCT030 SCT100=

USA.gov is the U.S. government's official web portal to all federal, state and local government web resources and services.